sensor_id;sensor_type;location;lat;lon;timestamp;pressure;altitude;pressure_sealevel;temperature;humidity
24752;BME280;27246;52.376;4.628;2023-02-28T00:04:05;103118.88;;;5.06;77.19
24752;BME280;27246;52.376;4.628;2023-02-28T00:09:07;103121.53;;;5.07;77.20
24752;BME280;27246;52.376;4.628;2023-02-28T00:14:08;103117.50;;;4.98;77.57
24752;BME280;27246;52.376;4.628;2023-02-28T00:19:10;103126.47;;;5.00;77.74
24752;BME280;27246;52.376;4.628;2023-02-28T00:24:14;103115.47;;;5.02;77.89
24752;BME280;27246;52.376;4.628;2023-02-28T00:29:16;103117.31;;;5.01;77.81
24752;BME280;27246;52.376;4.628;2023-02-28T00:34:18;103124.09;;;5.10;77.87
24752;BME280;27246;52.376;4.628;2023-02-28T00:39:21;103114.03;;;5.11;77.80
24752;BME280;27246;52.376;4.628;2023-02-28T00:44:22;103120.97;;;5.16;77.51
24752;BME280;27246;52.376;4.628;2023-02-28T00:49:25;103117.84;;;5.08;77.79
24752;BME280;27246;52.376;4.628;2023-02-28T00:54:27;103103.75;;;5.00;77.73
24752;BME280;27246;52.376;4.628;2023-02-28T00:59:30;103105.34;;;4.88;79.08
24752;BME280;27246;52.376;4.628;2023-02-28T01:04:31;103107.00;;;4.91;78.92
24752;BME280;27246;52.376;4.628;2023-02-28T01:09:35;103118.56;;;4.96;78.57
24752;BME280;27246;52.376;4.628;2023-02-28T01:14:38;103110.78;;;5.04;79.15
24752;BME280;27246;52.376;4.628;2023-02-28T01:19:40;103108.53;;;4.96;79.42
24752;BME280;27246;52.376;4.628;2023-02-28T01:24:43;103101.13;;;4.98;79.27
24752;BME280;27246;52.376;4.628;2023-02-28T01:29:46;103100.13;;;4.99;79.54
24752;BME280;27246;52.376;4.628;2023-02-28T01:34:49;103088.03;;;5.04;79.60
24752;BME280;27246;52.376;4.628;2023-02-28T01:39:51;103088.16;;;5.02;79.67
24752;BME280;27246;52.376;4.628;2023-02-28T01:44:59;103096.16;;;5.05;79.33
24752;BME280;27246;52.376;4.628;2023-02-28T01:50:04;103093.91;;;5.12;79.67
24752;BME280;27246;52.376;4.628;2023-02-28T01:55:08;103080.25;;;5.12;79.34
24752;BME280;27246;52.376;4.628;2023-02-28T02:00:14;103094.78;;;4.98;80.23
24752;BME280;27246;52.376;4.628;2023-02-28T02:05:25;103081.25;;;5.11;80.18
24752;BME280;27246;52.376;4.628;2023-02-28T02:10:32;103083.59;;;5.17;79.57
24752;BME280;27246;52.376;4.628;2023-02-28T02:15:42;103084.28;;;5.20;79.73
24752;BME280;27246;52.376;4.628;2023-02-28T02:31:14;103065.31;;;5.03;79.89
24752;BME280;27246;52.376;4.628;2023-02-28T02:36:42;103058.13;;;5.02;80.93
24752;BME280;27246;52.376;4.628;2023-02-28T02:41:52;103051.19;;;5.11;80.81
24752;BME280;27246;52.376;4.628;2023-02-28T02:46:58;103059.19;;;5.14;80.13
24752;BME280;27246;52.376;4.628;2023-02-28T02:52:04;103045.53;;;5.14;79.83
24752;BME280;27246;52.376;4.628;2023-02-28T02:57:15;103057.34;;;5.14;79.33
24752;BME280;27246;52.376;4.628;2023-02-28T03:02:20;103050.59;;;5.20;79.97
24752;BME280;27246;52.376;4.628;2023-02-28T03:07:23;103061.06;;;5.28;79.74
24752;BME280;27246;52.376;4.628;2023-02-28T03:12:40;103059.72;;;5.20;79.53
24752;BME280;27246;52.376;4.628;2023-02-28T03:17:46;103062.94;;;5.27;80.61
24752;BME280;27246;52.376;4.628;2023-02-28T03:28:26;103049.94;;;5.16;81.32
24752;BME280;27246;52.376;4.628;2023-02-28T03:33:37;103049.66;;;5.21;81.94
24752;BME280;27246;52.376;4.628;2023-02-28T03:38:45;103051.81;;;5.30;81.89
24752;BME280;27246;52.376;4.628;2023-02-28T03:43:56;103050.25;;;5.26;81.96
24752;BME280;27246;52.376;4.628;2023-02-28T03:49:06;103054.50;;;5.16;82.61
24752;BME280;27246;52.376;4.628;2023-02-28T03:54:18;103061.75;;;5.17;82.01
24752;BME280;27246;52.376;4.628;2023-02-28T03:59:28;103060.50;;;5.23;81.86
24752;BME280;27246;52.376;4.628;2023-02-28T04:04:33;103056.75;;;5.24;82.33
24752;BME280;27246;52.376;4.628;2023-02-28T04:09:35;103052.22;;;5.24;82.62
24752;BME280;27246;52.376;4.628;2023-02-28T04:14:37;103048.47;;;5.25;82.59
24752;BME280;27246;52.376;4.628;2023-02-28T04:19:38;103043.63;;;5.30;83.09
24752;BME280;27246;52.376;4.628;2023-02-28T04:24:40;103044.28;;;5.19;83.58
24752;BME280;27246;52.376;4.628;2023-02-28T04:29:42;103042.69;;;5.15;84.03
24752;BME280;27246;52.376;4.628;2023-02-28T04:34:45;103045.41;;;5.01;85.26
24752;BME280;27246;52.376;4.628;2023-02-28T04:39:47;103043.41;;;5.19;85.05
24752;BME280;27246;52.376;4.628;2023-02-28T04:44:49;103042.06;;;5.26;84.91
24752;BME280;27246;52.376;4.628;2023-02-28T04:49:50;103043.63;;;5.30;85.03
24752;BME280;27246;52.376;4.628;2023-02-28T04:54:52;103044.41;;;5.32;84.59
24752;BME280;27246;52.376;4.628;2023-02-28T04:59:54;103045.56;;;5.28;85.45
24752;BME280;27246;52.376;4.628;2023-02-28T05:04:55;103052.06;;;5.11;85.82
24752;BME280;27246;52.376;4.628;2023-02-28T05:09:57;103044.97;;;5.23;86.39
24752;BME280;27246;52.376;4.628;2023-02-28T05:14:59;103037.16;;;5.31;86.20
24752;BME280;27246;52.376;4.628;2023-02-28T05:20:02;103046.91;;;5.21;86.65
24752;BME280;27246;52.376;4.628;2023-02-28T05:25:20;103049.25;;;5.13;87.49
24752;BME280;27246;52.376;4.628;2023-02-28T05:30:25;103045.50;;;4.99;89.11
24752;BME280;27246;52.376;4.628;2023-02-28T05:35:27;103049.63;;;5.07;89.53
24752;BME280;27246;52.376;4.628;2023-02-28T05:40:28;103056.84;;;5.08;90.17
24752;BME280;27246;52.376;4.628;2023-02-28T05:45:30;103058.69;;;5.07;90.22
24752;BME280;27246;52.376;4.628;2023-02-28T05:50:32;103055.97;;;5.07;90.78
24752;BME280;27246;52.376;4.628;2023-02-28T05:55:33;103054.31;;;5.05;90.92
24752;BME280;27246;52.376;4.628;2023-02-28T06:00:37;103063.78;;;4.67;89.61
24752;BME280;27246;52.376;4.628;2023-02-28T06:05:41;103052.97;;;4.35;86.45
24752;BME280;27246;52.376;4.628;2023-02-28T06:10:43;103053.47;;;4.42;84.73
24752;BME280;27246;52.376;4.628;2023-02-28T06:15:45;103056.19;;;4.42;82.72
24752;BME280;27246;52.376;4.628;2023-02-28T06:20:54;103052.31;;;4.46;82.08
24752;BME280;27246;52.376;4.628;2023-02-28T06:25:56;103049.03;;;4.55;82.47
24752;BME280;27246;52.376;4.628;2023-02-28T06:30:59;103045.09;;;4.45;81.67
24752;BME280;27246;52.376;4.628;2023-02-28T06:36:08;103063.41;;;4.43;83.05
24752;BME280;27246;52.376;4.628;2023-02-28T06:41:10;103059.00;;;4.56;82.97
24752;BME280;27246;52.376;4.628;2023-02-28T06:46:13;103067.31;;;4.07;83.66
24752;BME280;27246;52.376;4.628;2023-02-28T06:51:18;103069.31;;;4.04;85.35
24752;BME280;27246;52.376;4.628;2023-02-28T06:56:21;103077.31;;;4.07;86.31
24752;BME280;27246;52.376;4.628;2023-02-28T07:01:23;103087.75;;;3.82;86.95
24752;BME280;27246;52.376;4.628;2023-02-28T07:06:25;103091.69;;;3.61;88.66
24752;BME280;27246;52.376;4.628;2023-02-28T07:11:27;103094.56;;;3.58;89.42
24752;BME280;27246;52.376;4.628;2023-02-28T07:16:30;103094.69;;;3.39;90.08
24752;BME280;27246;52.376;4.628;2023-02-28T07:21:31;103096.38;;;3.41;90.87
24752;BME280;27246;52.376;4.628;2023-02-28T07:26:33;103100.22;;;3.37;91.09
24752;BME280;27246;52.376;4.628;2023-02-28T07:31:37;103095.16;;;3.47;90.89
24752;BME280;27246;52.376;4.628;2023-02-28T07:36:39;103101.34;;;3.33;91.10
24752;BME280;27246;52.376;4.628;2023-02-28T07:41:41;103095.56;;;3.39;92.54
24752;BME280;27246;52.376;4.628;2023-02-28T07:46:45;103101.81;;;3.24;92.86
24752;BME280;27246;52.376;4.628;2023-02-28T07:51:46;103104.00;;;3.00;93.08
24752;BME280;27246;52.376;4.628;2023-02-28T07:56:48;103100.53;;;3.14;93.25
24752;BME280;27246;52.376;4.628;2023-02-28T08:01:50;103104.00;;;3.00;92.54
24752;BME280;27246;52.376;4.628;2023-02-28T08:06:52;103120.72;;;2.75;92.02
24752;BME280;27246;52.376;4.628;2023-02-28T08:11:54;103127.22;;;2.53;91.94
24752;BME280;27246;52.376;4.628;2023-02-28T08:16:56;103132.31;;;2.42;91.18
24752;BME280;27246;52.376;4.628;2023-02-28T08:21:57;103135.34;;;2.36;91.71
24752;BME280;27246;52.376;4.628;2023-02-28T08:26:59;103128.03;;;2.55;91.37
24752;BME280;27246;52.376;4.628;2023-02-28T08:32:01;103121.69;;;2.74;89.32
24752;BME280;27246;52.376;4.628;2023-02-28T08:37:03;103123.50;;;2.37;89.56
24752;BME280;27246;52.376;4.628;2023-02-28T08:42:04;103125.91;;;2.43;89.52
24752;BME280;27246;52.376;4.628;2023-02-28T08:47:08;103126.88;;;2.42;90.03
24752;BME280;27246;52.376;4.628;2023-02-28T08:52:10;103122.56;;;2.38;91.04
24752;BME280;27246;52.376;4.628;2023-02-28T08:57:12;103134.06;;;2.43;90.94
24752;BME280;27246;52.376;4.628;2023-02-28T09:02:14;103137.41;;;2.12;93.53
24752;BME280;27246;52.376;4.628;2023-02-28T09:07:15;103140.41;;;2.06;93.61
24752;BME280;27246;52.376;4.628;2023-02-28T09:12:17;103144.00;;;1.87;94.33
24752;BME280;27246;52.376;4.628;2023-02-28T09:17:19;103151.19;;;1.88;95.33
24752;BME280;27246;52.376;4.628;2023-02-28T09:22:21;103130.19;;;1.92;95.68
24752;BME280;27246;52.376;4.628;2023-02-28T09:27:23;103123.06;;;2.27;95.96
24752;BME280;27246;52.376;4.628;2023-02-28T09:32:24;103123.97;;;2.28;94.60
24752;BME280;27246;52.376;4.628;2023-02-28T09:37:26;103130.91;;;2.52;93.78
24752;BME280;27246;52.376;4.628;2023-02-28T09:42:33;103137.38;;;2.50;92.82
24752;BME280;27246;52.376;4.628;2023-02-28T09:47:44;103133.19;;;2.79;93.67
24752;BME280;27246;52.376;4.628;2023-02-28T09:52:48;103138.00;;;2.74;92.94
24752;BME280;27246;52.376;4.628;2023-02-28T09:57:51;103143.28;;;2.77;91.71
24752;BME280;27246;52.376;4.628;2023-02-28T10:03:01;103140.91;;;2.88;91.53
24752;BME280;27246;52.376;4.628;2023-02-28T10:08:11;103141.38;;;3.14;90.41
24752;BME280;27246;52.376;4.628;2023-02-28T10:13:17;103132.91;;;3.20;87.05
24752;BME280;27246;52.376;4.628;2023-02-28T10:18:26;103133.31;;;3.30;85.96
24752;BME280;27246;52.376;4.628;2023-02-28T10:23:34;103136.94;;;3.30;84.17
24752;BME280;27246;52.376;4.628;2023-02-28T10:28:37;103147.63;;;3.16;84.33
24752;BME280;27246;52.376;4.628;2023-02-28T10:33:38;103133.72;;;3.39;85.40
24752;BME280;27246;52.376;4.628;2023-02-28T10:38:40;103130.97;;;3.39;83.70
24752;BME280;27246;52.376;4.628;2023-02-28T10:43:43;103145.81;;;3.34;84.42
24752;BME280;27246;52.376;4.628;2023-02-28T10:54:32;103137.53;;;3.86;82.72
24752;BME280;27246;52.376;4.628;2023-02-28T10:59:39;103146.94;;;3.80;81.40
24752;BME280;27246;52.376;4.628;2023-02-28T11:04:40;103137.34;;;3.73;81.27
24752;BME280;27246;52.376;4.628;2023-02-28T11:09:46;103141.28;;;3.50;76.31
24752;BME280;27246;52.376;4.628;2023-02-28T11:14:57;103132.75;;;3.40;72.37
24752;BME280;27246;52.376;4.628;2023-02-28T11:20:02;103132.72;;;3.58;72.61
24752;BME280;27246;52.376;4.628;2023-02-28T11:25:15;103126.91;;;3.81;68.25
24752;BME280;27246;52.376;4.628;2023-02-28T11:30:28;103121.75;;;4.56;64.22
24752;BME280;27246;52.376;4.628;2023-02-28T11:35:33;103122.63;;;4.73;61.16
24752;BME280;27246;52.376;4.628;2023-02-28T11:40:53;103126.59;;;4.67;61.96
24752;BME280;27246;52.376;4.628;2023-02-28T11:52:01;103124.34;;;5.06;58.09
24752;BME280;27246;52.376;4.628;2023-02-28T12:02:58;103119.78;;;5.51;55.57
24752;BME280;27246;52.376;4.628;2023-02-28T12:13:21;103100.44;;;5.68;54.22
24752;BME280;27246;52.376;4.628;2023-02-28T12:34:30;103079.63;;;6.90;51.05
24752;BME280;27246;52.376;4.628;2023-02-28T12:39:37;103073.84;;;7.08;49.54
24752;BME280;27246;52.376;4.628;2023-02-28T12:44:57;103068.75;;;7.29;50.59
24752;BME280;27246;52.376;4.628;2023-02-28T12:50:09;103065.44;;;7.11;48.62
24752;BME280;27246;52.376;4.628;2023-02-28T12:55:35;103065.63;;;6.95;47.58
24752;BME280;27246;52.376;4.628;2023-02-28T13:01:04;103055.78;;;7.18;51.64
24752;BME280;27246;52.376;4.628;2023-02-28T13:06:33;103054.03;;;7.17;48.28
24752;BME280;27246;52.376;4.628;2023-02-28T13:11:43;103041.56;;;7.38;50.57
24752;BME280;27246;52.376;4.628;2023-02-28T13:22:55;103049.94;;;6.97;48.70
24752;BME280;27246;52.376;4.628;2023-02-28T13:27:57;103034.75;;;7.18;47.81
24752;BME280;27246;52.376;4.628;2023-02-28T13:33:22;103035.19;;;7.25;48.46
24752;BME280;27246;52.376;4.628;2023-02-28T13:38:36;103029.91;;;7.09;48.19
24752;BME280;27246;52.376;4.628;2023-02-28T13:44:10;103029.03;;;7.60;48.58
24752;BME280;27246;52.376;4.628;2023-02-28T14:10:24;103006.88;;;7.50;48.03
24752;BME280;27246;52.376;4.628;2023-02-28T14:15:41;103007.22;;;7.71;47.46
24752;BME280;27246;52.376;4.628;2023-02-28T14:20:47;102994.38;;;7.46;46.94
24752;BME280;27246;52.376;4.628;2023-02-28T14:26:08;102999.84;;;7.08;46.44
24752;BME280;27246;52.376;4.628;2023-02-28T14:36:26;102996.47;;;7.04;45.47
24752;BME280;27246;52.376;4.628;2023-02-28T14:41:38;102995.50;;;7.56;48.07
24752;BME280;27246;52.376;4.628;2023-02-28T14:46:42;102994.28;;;7.35;47.10
24752;BME280;27246;52.376;4.628;2023-02-28T14:51:44;102985.38;;;7.31;47.13
24752;BME280;27246;52.376;4.628;2023-02-28T14:56:49;102997.44;;;6.90;49.29
24752;BME280;27246;52.376;4.628;2023-02-28T15:01:51;102995.72;;;7.15;48.08
24752;BME280;27246;52.376;4.628;2023-02-28T15:07:14;102992.84;;;6.91;48.09
24752;BME280;27246;52.376;4.628;2023-02-28T15:12:16;102997.88;;;6.84;48.57
24752;BME280;27246;52.376;4.628;2023-02-28T15:17:23;102991.75;;;6.40;46.68
24752;BME280;27246;52.376;4.628;2023-02-28T15:22:34;102990.19;;;6.89;48.07
24752;BME280;27246;52.376;4.628;2023-02-28T15:27:44;102991.41;;;6.45;47.81
24752;BME280;27246;52.376;4.628;2023-02-28T15:33:06;103002.19;;;6.61;46.80
24752;BME280;27246;52.376;4.628;2023-02-28T15:38:22;103003.22;;;6.73;48.02
24752;BME280;27246;52.376;4.628;2023-02-28T15:43:31;103007.66;;;6.61;48.53
24752;BME280;27246;52.376;4.628;2023-02-28T15:48:45;103006.84;;;6.33;48.55
24752;BME280;27246;52.376;4.628;2023-02-28T15:53:56;103006.44;;;6.39;49.06
24752;BME280;27246;52.376;4.628;2023-02-28T15:59:05;103019.41;;;6.09;48.64
24752;BME280;27246;52.376;4.628;2023-02-28T16:04:18;103003.16;;;5.93;48.23
24752;BME280;27246;52.376;4.628;2023-02-28T16:09:20;103005.31;;;5.88;49.04
24752;BME280;27246;52.376;4.628;2023-02-28T16:14:23;102999.38;;;5.81;49.69
24752;BME280;27246;52.376;4.628;2023-02-28T16:19:25;103002.63;;;6.00;51.82
24752;BME280;27246;52.376;4.628;2023-02-28T16:24:27;102994.13;;;6.05;50.12
24752;BME280;27246;52.376;4.628;2023-02-28T16:29:34;102991.75;;;6.13;49.52
24752;BME280;27246;52.376;4.628;2023-02-28T16:34:37;103008.78;;;6.04;50.16
24752;BME280;27246;52.376;4.628;2023-02-28T16:39:40;103009.13;;;5.85;50.69
24752;BME280;27246;52.376;4.628;2023-02-28T16:44:42;103021.63;;;5.89;50.81
24752;BME280;27246;52.376;4.628;2023-02-28T16:49:44;103021.75;;;5.59;50.23
24752;BME280;27246;52.376;4.628;2023-02-28T16:54:46;103021.75;;;5.45;50.30
24752;BME280;27246;52.376;4.628;2023-02-28T16:59:49;103031.69;;;5.60;49.42
24752;BME280;27246;52.376;4.628;2023-02-28T17:04:52;103025.44;;;5.44;50.10
24752;BME280;27246;52.376;4.628;2023-02-28T17:09:53;103022.16;;;5.38;50.55
24752;BME280;27246;52.376;4.628;2023-02-28T17:14:55;103030.81;;;5.31;49.82
24752;BME280;27246;52.376;4.628;2023-02-28T17:19:57;103029.75;;;5.48;49.79
24752;BME280;27246;52.376;4.628;2023-02-28T17:24:58;103040.59;;;5.35;50.08
24752;BME280;27246;52.376;4.628;2023-02-28T17:30:00;103041.06;;;5.27;51.24
24752;BME280;27246;52.376;4.628;2023-02-28T17:35:02;103040.00;;;5.30;51.49
24752;BME280;27246;52.376;4.628;2023-02-28T17:40:04;103045.75;;;5.25;51.84
24752;BME280;27246;52.376;4.628;2023-02-28T17:45:07;103056.06;;;5.20;52.45
24752;BME280;27246;52.376;4.628;2023-02-28T17:50:15;103060.19;;;5.27;53.07
24752;BME280;27246;52.376;4.628;2023-02-28T17:55:17;103060.28;;;5.26;53.20
24752;BME280;27246;52.376;4.628;2023-02-28T18:00:20;103068.41;;;5.27;54.27
24752;BME280;27246;52.376;4.628;2023-02-28T18:05:25;103064.50;;;5.31;54.01
24752;BME280;27246;52.376;4.628;2023-02-28T18:10:27;103070.28;;;4.96;55.29
24752;BME280;27246;52.376;4.628;2023-02-28T18:15:29;103075.66;;;4.82;56.24
24752;BME280;27246;52.376;4.628;2023-02-28T18:20:30;103077.38;;;4.69;57.27
24752;BME280;27246;52.376;4.628;2023-02-28T18:25:32;103081.66;;;4.73;57.58
24752;BME280;27246;52.376;4.628;2023-02-28T18:30:36;103092.28;;;4.93;58.15
24752;BME280;27246;52.376;4.628;2023-02-28T18:35:38;103091.31;;;4.94;58.11
24752;BME280;27246;52.376;4.628;2023-02-28T18:40:41;103088.41;;;4.97;58.75
24752;BME280;27246;52.376;4.628;2023-02-28T18:45:43;103096.59;;;4.97;59.41
24752;BME280;27246;52.376;4.628;2023-02-28T18:50:45;103091.56;;;5.06;59.37
24752;BME280;27246;52.376;4.628;2023-02-28T18:55:47;103089.19;;;4.99;59.39
24752;BME280;27246;52.376;4.628;2023-02-28T19:00:49;103091.84;;;5.01;59.71
24752;BME280;27246;52.376;4.628;2023-02-28T19:05:55;103094.78;;;4.98;60.21
24752;BME280;27246;52.376;4.628;2023-02-28T19:10:57;103089.59;;;5.08;59.98
24752;BME280;27246;52.376;4.628;2023-02-28T19:16:05;103095.28;;;5.05;60.77
24752;BME280;27246;52.376;4.628;2023-02-28T19:21:09;103097.59;;;4.96;61.57
24752;BME280;27246;52.376;4.628;2023-02-28T19:26:29;103092.13;;;4.96;60.89
24752;BME280;27246;52.376;4.628;2023-02-28T19:31:31;103096.88;;;4.93;60.88
24752;BME280;27246;52.376;4.628;2023-02-28T19:36:34;103097.72;;;4.93;61.55
24752;BME280;27246;52.376;4.628;2023-02-28T19:41:36;103101.28;;;4.95;61.49
24752;BME280;27246;52.376;4.628;2023-02-28T19:46:38;103098.47;;;4.81;62.22
24752;BME280;27246;52.376;4.628;2023-02-28T19:51:39;103104.50;;;4.72;62.99
24752;BME280;27246;52.376;4.628;2023-02-28T19:56:41;103106.88;;;4.78;62.49
24752;BME280;27246;52.376;4.628;2023-02-28T20:01:43;103106.16;;;4.74;62.84
24752;BME280;27246;52.376;4.628;2023-02-28T20:06:44;103112.50;;;4.75;63.20
24752;BME280;27246;52.376;4.628;2023-02-28T20:11:46;103102.56;;;4.74;63.78
24752;BME280;27246;52.376;4.628;2023-02-28T20:16:48;103100.56;;;4.61;63.95
24752;BME280;27246;52.376;4.628;2023-02-28T20:21:50;103093.56;;;4.72;64.29
24752;BME280;27246;52.376;4.628;2023-02-28T20:26:52;103105.66;;;4.68;64.43
24752;BME280;27246;52.376;4.628;2023-02-28T20:31:54;103102.66;;;4.56;64.81
24752;BME280;27246;52.376;4.628;2023-02-28T20:36:56;103105.13;;;4.45;64.87
24752;BME280;27246;52.376;4.628;2023-02-28T20:41:59;103104.88;;;4.50;65.45
24752;BME280;27246;52.376;4.628;2023-02-28T20:47:00;103103.63;;;4.55;65.37
24752;BME280;27246;52.376;4.628;2023-02-28T20:52:02;103112.88;;;4.53;64.99
24752;BME280;27246;52.376;4.628;2023-02-28T20:57:04;103116.31;;;4.40;65.21
24752;BME280;27246;52.376;4.628;2023-02-28T21:02:06;103121.06;;;4.37;66.08
24752;BME280;27246;52.376;4.628;2023-02-28T21:07:07;103121.84;;;4.39;65.77
24752;BME280;27246;52.376;4.628;2023-02-28T21:12:09;103129.16;;;4.38;66.05
24752;BME280;27246;52.376;4.628;2023-02-28T21:17:11;103132.16;;;4.34;65.94
24752;BME280;27246;52.376;4.628;2023-02-28T21:22:12;103128.00;;;4.27;66.26
24752;BME280;27246;52.376;4.628;2023-02-28T21:27:14;103140.94;;;4.23;66.54
24752;BME280;27246;52.376;4.628;2023-02-28T21:32:16;103145.06;;;4.14;67.06
24752;BME280;27246;52.376;4.628;2023-02-28T21:37:18;103139.34;;;4.19;66.96
24752;BME280;27246;52.376;4.628;2023-02-28T21:42:20;103142.09;;;4.03;67.45
24752;BME280;27246;52.376;4.628;2023-02-28T21:47:22;103139.78;;;3.95;67.90
24752;BME280;27246;52.376;4.628;2023-02-28T21:52:24;103147.53;;;4.03;67.61
24752;BME280;27246;52.376;4.628;2023-02-28T21:57:26;103142.69;;;4.08;67.12
24752;BME280;27246;52.376;4.628;2023-02-28T22:02:28;103143.91;;;4.03;67.15
24752;BME280;27246;52.376;4.628;2023-02-28T22:07:30;103150.91;;;3.91;68.01
24752;BME280;27246;52.376;4.628;2023-02-28T22:12:32;103138.91;;;3.95;67.47
24752;BME280;27246;52.376;4.628;2023-02-28T22:17:34;103136.19;;;3.95;67.38
24752;BME280;27246;52.376;4.628;2023-02-28T22:22:35;103133.59;;;3.92;67.76
24752;BME280;27246;52.376;4.628;2023-02-28T22:27:37;103133.69;;;3.90;67.86
24752;BME280;27246;52.376;4.628;2023-02-28T22:32:39;103140.91;;;3.91;67.91
24752;BME280;27246;52.376;4.628;2023-02-28T22:37:40;103133.16;;;3.84;68.71
24752;BME280;27246;52.376;4.628;2023-02-28T22:42:42;103142.06;;;3.87;69.53
24752;BME280;27246;52.376;4.628;2023-02-28T22:47:47;103141.25;;;3.85;69.67
24752;BME280;27246;52.376;4.628;2023-02-28T22:52:49;103148.53;;;3.85;70.47
24752;BME280;27246;52.376;4.628;2023-02-28T22:57:51;103144.06;;;3.84;70.70
24752;BME280;27246;52.376;4.628;2023-02-28T23:02:53;103142.47;;;3.79;71.13
24752;BME280;27246;52.376;4.628;2023-02-28T23:07:54;103147.13;;;3.77;71.48
24752;BME280;27246;52.376;4.628;2023-02-28T23:12:56;103147.91;;;3.79;72.19
24752;BME280;27246;52.376;4.628;2023-02-28T23:17:58;103149.06;;;3.75;72.67
24752;BME280;27246;52.376;4.628;2023-02-28T23:22:59;103150.00;;;3.74;73.44
24752;BME280;27246;52.376;4.628;2023-02-28T23:28:01;103142.72;;;3.75;74.01
24752;BME280;27246;52.376;4.628;2023-02-28T23:33:04;103141.22;;;3.69;74.34
24752;BME280;27246;52.376;4.628;2023-02-28T23:38:06;103145.59;;;3.72;74.48
24752;BME280;27246;52.376;4.628;2023-02-28T23:43:08;103152.84;;;3.73;75.30
24752;BME280;27246;52.376;4.628;2023-02-28T23:48:10;103164.41;;;3.76;75.76
24752;BME280;27246;52.376;4.628;2023-02-28T23:53:12;103157.03;;;3.78;76.39
24752;BME280;27246;52.376;4.628;2023-02-28T23:58:14;103164.88;;;3.85;77.71
